This is the latest recevied weather packets stored in our database for station/object KI4LFI. If no packets are shown the sender has not sent any weather packets the latest 10 day(s).
| Time | Temp. | Humidity | Pressure | Rain* | Wind** | Luminosity | Snow |
|---|---|---|---|---|---|---|---|
| 1778032867 | 20.56° C | 86% | 1014.4 hPa | 0 mm | - | - | - |
| 1778031944 | 20.56° C | 84% | 1014.4 hPa | 0 mm | - | - | - |
| 1778025654 | 23.89° C | 72% | 1014 hPa | 0 mm | - | - | - |
| 1778024741 | 23.89° C | 72% | 1013.8 hPa | 0 mm | - | - | - |
| 1778023849 | 24.44° C | 70% | 1013.7 hPa | 0 mm | - | - | - |
| 1778020239 | 26.67° C | 64% | 1013.6 hPa | 0 mm | - | - | - |
| 1778013955 | 27.78° C | 63% | 1013.4 hPa | 0 mm | - | - | - |
| 1778013040 | 27.78° C | 61% | 1013.6 hPa | 0 mm | - | - | - |
| 1778003140 | 26.67° C | 64% | 1015.8 hPa | 0 mm | - | - | - |
| 1777999542 | 24.44° C | 68% | 1015.8 hPa | 0 mm | - | - | - |
| 1777993236 | 22.22° C | 69% | 1016.3 hPa | 0 mm | - | - | - |
| 1777991444 | 21.67° C | 70% | 1016.3 hPa | 0 mm | - | - | - |
| 1777989638 | 20° C | 74% | 1016.2 hPa | 0 mm | - | - | - |
| 1777988743 | 18.89° C | 78% | 1016 hPa | 0 mm | - | - | - |
| 1777986043 | 15° C | 89% | 1015.8 hPa | 0 mm | - | - | - |
| 1777985141 | 13.33° C | 95% | 1015.9 hPa | 0 mm | - | - | - |
| 1777978862 | 7.78° C | 98% | 1014.9 hPa | 0 mm | - | - | - |
| 1777977041 | 7.78° C | 98% | 1014.7 hPa | 0 mm | - | - | - |
| 1777976142 | 8.33° C | 98% | 1014.4 hPa | 0 mm | - | - | - |
| 1777974338 | 8.33° C | 98% | 1014.4 hPa | 0 mm | - | - | - |
| 1777971642 | 8.89° C | 97% | 1014.2 hPa | 0 mm | - | - | - |
| 1777968937 | 8.89° C | 96% | 1013.7 hPa | 0 mm | - | - | - |
| 1777965338 | 10° C | 96% | 1014.5 hPa | 0 mm | - | - | - |
| 1777962635 | 10.56° C | 93% | 1014.8 hPa | 0 mm | - | - | - |
| 1777945540 | 18.89° C | 64% | 1015.1 hPa | 0 mm | - | - | - |
* Rain latest hour (hover to see other rain measurements)
** Current wind speed in m/s (hover to see current wind gust speed)